sensor_id;sensor_type;location;lat;lon;timestamp;P1;durP1;ratioP1;P2;durP2;ratioP2
69981;SDS011;57319;56.274;43.980;2022-11-02T00:00:48;0.30;;;0.30;;
69981;SDS011;57319;56.274;43.980;2022-11-02T00:03:14;0.73;;;0.40;;
69981;SDS011;57319;56.274;43.980;2022-11-02T00:05:40;0.40;;;0.40;;
69981;SDS011;57319;56.274;43.980;2022-11-02T00:08:05;0.73;;;0.30;;
69981;SDS011;57319;56.274;43.980;2022-11-02T00:10:31;0.82;;;0.40;;
69981;SDS011;57319;56.274;43.980;2022-11-02T00:12:57;2.65;;;0.65;;
69981;SDS011;57319;56.274;43.980;2022-11-02T00:15:23;0.30;;;0.30;;
69981;SDS011;57319;56.274;43.980;2022-11-02T00:17:52;2.00;;;0.50;;
69981;SDS011;57319;56.274;43.980;2022-11-02T00:20:22;0.30;;;0.30;;
69981;SDS011;57319;56.274;43.980;2022-11-02T00:22:50;1.02;;;0.30;;
69981;SDS011;57319;56.274;43.980;2022-11-02T00:25:20;0.30;;;0.30;;
69981;SDS011;57319;56.274;43.980;2022-11-02T00:27:47;0.30;;;0.30;;
69981;SDS011;57319;56.274;43.980;2022-11-02T00:30:13;0.55;;;0.40;;
69981;SDS011;57319;56.274;43.980;2022-11-02T00:32:39;0.50;;;0.50;;
69981;SDS011;57319;56.274;43.980;2022-11-02T00:35:05;0.28;;;0.28;;
69981;SDS011;57319;56.274;43.980;2022-11-02T00:37:31;0.20;;;0.20;;
69981;SDS011;57319;56.274;43.980;2022-11-02T00:39:57;0.20;;;0.20;;
69981;SDS011;57319;56.274;43.980;2022-11-02T00:42:22;0.38;;;0.38;;
69981;SDS011;57319;56.274;43.980;2022-11-02T00:44:48;0.30;;;0.30;;
69981;SDS011;57319;56.274;43.980;2022-11-02T00:47:14;0.30;;;0.30;;
69981;SDS011;57319;56.274;43.980;2022-11-02T00:49:39;0.30;;;0.30;;
69981;SDS011;57319;56.274;43.980;2022-11-02T00:52:05;0.38;;;0.30;;
69981;SDS011;57319;56.274;43.980;2022-11-02T00:54:30;0.10;;;0.10;;
69981;SDS011;57319;56.274;43.980;2022-11-02T00:56:56;0.10;;;0.10;;
69981;SDS011;57319;56.274;43.980;2022-11-02T00:59:21;0.30;;;0.30;;
69981;SDS011;57319;56.274;43.980;2022-11-02T01:01:47;0.30;;;0.30;;
69981;SDS011;57319;56.274;43.980;2022-11-02T01:04:14;0.28;;;0.20;;
69981;SDS011;57319;56.274;43.980;2022-11-02T01:06:40;0.10;;;0.10;;
69981;SDS011;57319;56.274;43.980;2022-11-02T01:09:07;0.25;;;0.25;;
69981;SDS011;57319;56.274;43.980;2022-11-02T01:11:33;0.20;;;0.20;;
69981;SDS011;57319;56.274;43.980;2022-11-02T01:13:59;0.30;;;0.30;;
69981;SDS011;57319;56.274;43.980;2022-11-02T01:16:25;0.20;;;0.20;;
69981;SDS011;57319;56.274;43.980;2022-11-02T01:18:52;0.30;;;0.30;;
69981;SDS011;57319;56.274;43.980;2022-11-02T01:21:18;0.25;;;0.25;;
69981;SDS011;57319;56.274;43.980;2022-11-02T01:23:44;0.20;;;0.20;;
69981;SDS011;57319;56.274;43.980;2022-11-02T01:26:10;0.35;;;0.35;;
69981;SDS011;57319;56.274;43.980;2022-11-02T01:28:36;0.20;;;0.20;;
69981;SDS011;57319;56.274;43.980;2022-11-02T01:31:03;0.17;;;0.17;;
69981;SDS011;57319;56.274;43.980;2022-11-02T01:33:30;0.35;;;0.35;;
69981;SDS011;57319;56.274;43.980;2022-11-02T01:35:56;0.20;;;0.20;;
69981;SDS011;57319;56.274;43.980;2022-11-02T01:38:22;0.20;;;0.20;;
69981;SDS011;57319;56.274;43.980;2022-11-02T01:40:48;0.30;;;0.30;;
69981;SDS011;57319;56.274;43.980;2022-11-02T01:43:20;3.40;;;0.32;;
69981;SDS011;57319;56.274;43.980;2022-11-02T01:45:49;0.25;;;0.25;;
69981;SDS011;57319;56.274;43.980;2022-11-02T01:48:38;0.30;;;0.30;;
69981;SDS011;57319;56.274;43.980;2022-11-02T01:51:29;0.32;;;0.32;;
69981;SDS011;57319;56.274;43.980;2022-11-02T01:53:59;0.40;;;0.40;;
69981;SDS011;57319;56.274;43.980;2022-11-02T01:56:31;0.55;;;0.43;;
69981;SDS011;57319;56.274;43.980;2022-11-02T01:59:02;0.22;;;0.22;;
69981;SDS011;57319;56.274;43.980;2022-11-02T02:01:30;5.93;;;0.30;;
69981;SDS011;57319;56.274;43.980;2022-11-02T02:03:56;0.30;;;0.30;;
69981;SDS011;57319;56.274;43.980;2022-11-02T02:06:22;0.73;;;0.30;;
69981;SDS011;57319;56.274;43.980;2022-11-02T02:08:50;0.40;;;0.40;;
69981;SDS011;57319;56.274;43.980;2022-11-02T02:13:48;0.30;;;0.30;;
69981;SDS011;57319;56.274;43.980;2022-11-02T02:16:42;0.30;;;0.30;;
69981;SDS011;57319;56.274;43.980;2022-11-02T02:19:55;0.60;;;0.60;;
69981;SDS011;57319;56.274;43.980;2022-11-02T02:22:21;0.50;;;0.50;;
69981;SDS011;57319;56.274;43.980;2022-11-02T02:30:36;0.30;;;0.30;;
69981;SDS011;57319;56.274;43.980;2022-11-02T02:33:16;0.30;;;0.30;;
69981;SDS011;57319;56.274;43.980;2022-11-02T02:35:53;0.30;;;0.30;;
69981;SDS011;57319;56.274;43.980;2022-11-02T02:38:44;0.50;;;0.50;;
69981;SDS011;57319;56.274;43.980;2022-11-02T02:44:02;1.10;;;0.55;;
69981;SDS011;57319;56.274;43.980;2022-11-02T02:46:36;0.30;;;0.30;;
69981;SDS011;57319;56.274;43.980;2022-11-02T02:49:09;0.30;;;0.30;;
69981;SDS011;57319;56.274;43.980;2022-11-02T02:51:38;0.30;;;0.30;;
69981;SDS011;57319;56.274;43.980;2022-11-02T02:54:07;0.30;;;0.30;;
69981;SDS011;57319;56.274;43.980;2022-11-02T02:56:39;1.13;;;0.60;;
69981;SDS011;57319;56.274;43.980;2022-11-02T02:59:28;0.30;;;0.30;;
69981;SDS011;57319;56.274;43.980;2022-11-02T03:01:57;0.43;;;0.43;;
69981;SDS011;57319;56.274;43.980;2022-11-02T03:04:23;0.38;;;0.32;;
69981;SDS011;57319;56.274;43.980;2022-11-02T03:06:51;2.05;;;0.52;;
69981;SDS011;57319;56.274;43.980;2022-11-02T03:17:57;3.20;;;0.47;;
69981;SDS011;57319;56.274;43.980;2022-11-02T03:20:39;0.50;;;0.50;;
69981;SDS011;57319;56.274;43.980;2022-11-02T03:23:28;0.43;;;0.43;;
69981;SDS011;57319;56.274;43.980;2022-11-02T03:26:17;0.40;;;0.40;;
69981;SDS011;57319;56.274;43.980;2022-11-02T03:39:53;0.55;;;0.55;;
69981;SDS011;57319;56.274;43.980;2022-11-02T03:42:24;0.40;;;0.40;;
69981;SDS011;57319;56.274;43.980;2022-11-02T03:45:03;0.30;;;0.30;;
69981;SDS011;57319;56.274;43.980;2022-11-02T03:47:34;0.40;;;0.40;;
69981;SDS011;57319;56.274;43.980;2022-11-02T03:50:02;0.50;;;0.50;;
69981;SDS011;57319;56.274;43.980;2022-11-02T03:52:31;0.88;;;0.88;;
69981;SDS011;57319;56.274;43.980;2022-11-02T03:55:27;0.60;;;0.60;;
69981;SDS011;57319;56.274;43.980;2022-11-02T03:57:55;0.80;;;0.60;;
69981;SDS011;57319;56.274;43.980;2022-11-02T04:00:23;1.98;;;0.63;;
69981;SDS011;57319;56.274;43.980;2022-11-02T04:02:53;0.50;;;0.50;;
69981;SDS011;57319;56.274;43.980;2022-11-02T04:05:28;2.40;;;0.50;;
69981;SDS011;57319;56.274;43.980;2022-11-02T04:08:02;4.57;;;0.60;;
69981;SDS011;57319;56.274;43.980;2022-11-02T04:10:50;0.50;;;0.50;;
69981;SDS011;57319;56.274;43.980;2022-11-02T04:13:35;0.63;;;0.63;;
69981;SDS011;57319;56.274;43.980;2022-11-02T04:16:20;0.75;;;0.50;;
69981;SDS011;57319;56.274;43.980;2022-11-02T04:18:46;4.03;;;0.50;;
69981;SDS011;57319;56.274;43.980;2022-11-02T04:21:30;0.50;;;0.50;;
69981;SDS011;57319;56.274;43.980;2022-11-02T04:23:56;0.60;;;0.60;;
69981;SDS011;57319;56.274;43.980;2022-11-02T04:26:40;1.55;;;0.80;;
69981;SDS011;57319;56.274;43.980;2022-11-02T04:29:06;0.63;;;0.63;;
69981;SDS011;57319;56.274;43.980;2022-11-02T04:31:31;0.70;;;0.70;;
69981;SDS011;57319;56.274;43.980;2022-11-02T04:33:57;0.60;;;0.60;;
69981;SDS011;57319;56.274;43.980;2022-11-02T04:36:24;0.32;;;0.32;;
69981;SDS011;57319;56.274;43.980;2022-11-02T04:38:50;6.03;;;0.30;;
69981;SDS011;57319;56.274;43.980;2022-11-02T04:41:17;1.17;;;0.60;;
69981;SDS011;57319;56.274;43.980;2022-11-02T04:44:03;0.50;;;0.50;;
69981;SDS011;57319;56.274;43.980;2022-11-02T04:46:31;0.50;;;0.50;;
69981;SDS011;57319;56.274;43.980;2022-11-02T04:48:58;1.17;;;0.60;;
69981;SDS011;57319;56.274;43.980;2022-11-02T04:51:24;2.05;;;0.88;;
69981;SDS011;57319;56.274;43.980;2022-11-02T04:53:52;1.92;;;0.60;;
69981;SDS011;57319;56.274;43.980;2022-11-02T04:56:18;5.43;;;0.40;;
69981;SDS011;57319;56.274;43.980;2022-11-02T04:58:51;4.75;;;0.60;;
69981;SDS011;57319;56.274;43.980;2022-11-02T05:01:19;4.60;;;0.68;;
69981;SDS011;57319;56.274;43.980;2022-11-02T05:03:46;0.40;;;0.40;;
69981;SDS011;57319;56.274;43.980;2022-11-02T05:06:14;0.60;;;0.60;;
69981;SDS011;57319;56.274;43.980;2022-11-02T05:08:40;5.38;;;0.65;;
69981;SDS011;57319;56.274;43.980;2022-11-02T05:11:07;4.13;;;0.50;;
69981;SDS011;57319;56.274;43.980;2022-11-02T05:13:34;3.60;;;0.50;;
69981;SDS011;57319;56.274;43.980;2022-11-02T05:16:00;0.47;;;0.47;;
69981;SDS011;57319;56.274;43.980;2022-11-02T05:18:26;0.38;;;0.38;;
69981;SDS011;57319;56.274;43.980;2022-11-02T05:20:54;3.17;;;0.50;;
69981;SDS011;57319;56.274;43.980;2022-11-02T05:23:21;0.40;;;0.40;;
69981;SDS011;57319;56.274;43.980;2022-11-02T05:25:51;0.63;;;0.60;;
69981;SDS011;57319;56.274;43.980;2022-11-02T05:28:20;0.60;;;0.60;;
69981;SDS011;57319;56.274;43.980;2022-11-02T05:30:46;3.92;;;0.50;;
69981;SDS011;57319;56.274;43.980;2022-11-02T05:33:12;6.70;;;0.60;;
69981;SDS011;57319;56.274;43.980;2022-11-02T05:35:38;0.60;;;0.60;;
69981;SDS011;57319;56.274;43.980;2022-11-02T05:38:04;0.47;;;0.40;;
69981;SDS011;57319;56.274;43.980;2022-11-02T05:40:29;1.00;;;0.55;;
69981;SDS011;57319;56.274;43.980;2022-11-02T05:42:59;0.63;;;0.43;;
69981;SDS011;57319;56.274;43.980;2022-11-02T05:45:25;0.40;;;0.40;;
69981;SDS011;57319;56.274;43.980;2022-11-02T05:47:51;9.15;;;0.60;;
69981;SDS011;57319;56.274;43.980;2022-11-02T05:50:17;7.43;;;0.80;;
69981;SDS011;57319;56.274;43.980;2022-11-02T05:52:42;0.45;;;0.35;;
69981;SDS011;57319;56.274;43.980;2022-11-02T05:55:08;6.65;;;0.45;;
69981;SDS011;57319;56.274;43.980;2022-11-02T05:57:34;0.68;;;0.68;;
69981;SDS011;57319;56.274;43.980;2022-11-02T05:59:59;2.40;;;0.40;;
69981;SDS011;57319;56.274;43.980;2022-11-02T06:02:25;3.08;;;0.57;;
69981;SDS011;57319;56.274;43.980;2022-11-02T06:04:51;8.68;;;0.60;;
69981;SDS011;57319;56.274;43.980;2022-11-02T06:07:16;1.98;;;0.80;;
69981;SDS011;57319;56.274;43.980;2022-11-02T06:09:42;10.05;;;0.70;;
69981;SDS011;57319;56.274;43.980;2022-11-02T06:12:08;5.05;;;0.70;;
69981;SDS011;57319;56.274;43.980;2022-11-02T06:14:33;2.95;;;0.70;;
69981;SDS011;57319;56.274;43.980;2022-11-02T06:16:59;0.60;;;0.60;;
69981;SDS011;57319;56.274;43.980;2022-11-02T06:19:24;5.47;;;0.65;;
69981;SDS011;57319;56.274;43.980;2022-11-02T06:21:50;0.73;;;0.73;;
69981;SDS011;57319;56.274;43.980;2022-11-02T06:24:16;5.88;;;0.70;;
69981;SDS011;57319;56.274;43.980;2022-11-02T06:26:42;3.58;;;0.70;;
69981;SDS011;57319;56.274;43.980;2022-11-02T06:29:07;6.38;;;1.10;;
69981;SDS011;57319;56.274;43.980;2022-11-02T06:31:33;9.15;;;1.83;;
69981;SDS011;57319;56.274;43.980;2022-11-02T06:33:58;0.45;;;0.43;;
69981;SDS011;57319;56.274;43.980;2022-11-02T06:36:24;0.82;;;0.80;;
69981;SDS011;57319;56.274;43.980;2022-11-02T06:38:50;1.10;;;0.40;;
69981;SDS011;57319;56.274;43.980;2022-11-02T06:41:15;0.25;;;0.25;;
69981;SDS011;57319;56.274;43.980;2022-11-02T06:43:41;0.30;;;0.30;;
69981;SDS011;57319;56.274;43.980;2022-11-02T06:46:07;8.52;;;0.60;;
69981;SDS011;57319;56.274;43.980;2022-11-02T06:48:32;0.40;;;0.40;;
69981;SDS011;57319;56.274;43.980;2022-11-02T06:50:58;0.30;;;0.30;;
69981;SDS011;57319;56.274;43.980;2022-11-02T06:53:24;5.05;;;0.30;;
69981;SDS011;57319;56.274;43.980;2022-11-02T06:55:51;4.75;;;0.98;;
69981;SDS011;57319;56.274;43.980;2022-11-02T06:58:17;0.60;;;0.60;;
69981;SDS011;57319;56.274;43.980;2022-11-02T07:00:43;1.13;;;0.40;;
69981;SDS011;57319;56.274;43.980;2022-11-02T07:03:09;0.30;;;0.30;;
69981;SDS011;57319;56.274;43.980;2022-11-02T07:05:35;3.28;;;0.50;;
69981;SDS011;57319;56.274;43.980;2022-11-02T07:08:02;1.27;;;0.82;;
69981;SDS011;57319;56.274;43.980;2022-11-02T07:10:29;0.70;;;0.70;;
69981;SDS011;57319;56.274;43.980;2022-11-02T07:12:55;7.57;;;0.90;;
69981;SDS011;57319;56.274;43.980;2022-11-02T07:15:22;10.40;;;0.77;;
69981;SDS011;57319;56.274;43.980;2022-11-02T07:17:49;0.43;;;0.43;;
69981;SDS011;57319;56.274;43.980;2022-11-02T07:20:16;9.32;;;0.82;;
69981;SDS011;57319;56.274;43.980;2022-11-02T07:22:50;9.02;;;0.90;;
69981;SDS011;57319;56.274;43.980;2022-11-02T07:25:19;1.90;;;0.47;;
69981;SDS011;57319;56.274;43.980;2022-11-02T07:27:45;1.00;;;0.40;;
69981;SDS011;57319;56.274;43.980;2022-11-02T07:30:11;0.95;;;0.95;;
69981;SDS011;57319;56.274;43.980;2022-11-02T07:32:43;0.30;;;0.30;;
69981;SDS011;57319;56.274;43.980;2022-11-02T07:35:10;3.00;;;0.43;;
69981;SDS011;57319;56.274;43.980;2022-11-02T07:37:37;3.35;;;0.50;;
69981;SDS011;57319;56.274;43.980;2022-11-02T07:40:04;0.50;;;0.50;;
69981;SDS011;57319;56.274;43.980;2022-11-02T07:42:31;2.72;;;0.80;;
69981;SDS011;57319;56.274;43.980;2022-11-02T07:44:57;10.52;;;1.25;;
69981;SDS011;57319;56.274;43.980;2022-11-02T07:47:23;2.78;;;1.52;;
69981;SDS011;57319;56.274;43.980;2022-11-02T07:49:48;1.25;;;0.57;;
69981;SDS011;57319;56.274;43.980;2022-11-02T07:52:14;6.22;;;0.80;;
69981;SDS011;57319;56.274;43.980;2022-11-02T07:54:40;5.05;;;0.65;;
69981;SDS011;57319;56.274;43.980;2022-11-02T07:57:05;4.30;;;0.70;;
69981;SDS011;57319;56.274;43.980;2022-11-02T07:59:31;3.97;;;0.47;;
69981;SDS011;57319;56.274;43.980;2022-11-02T08:01:57;10.30;;;0.70;;
69981;SDS011;57319;56.274;43.980;2022-11-02T08:04:22;0.40;;;0.40;;
69981;SDS011;57319;56.274;43.980;2022-11-02T08:06:48;1.25;;;0.55;;
69981;SDS011;57319;56.274;43.980;2022-11-02T08:09:13;3.00;;;0.50;;
69981;SDS011;57319;56.274;43.980;2022-11-02T08:11:39;3.58;;;0.60;;
69981;SDS011;57319;56.274;43.980;2022-11-02T08:14:05;10.05;;;0.60;;
69981;SDS011;57319;56.274;43.980;2022-11-02T08:16:31;5.32;;;0.55;;
69981;SDS011;57319;56.274;43.980;2022-11-02T08:18:57;7.50;;;0.50;;
69981;SDS011;57319;56.274;43.980;2022-11-02T08:21:23;4.60;;;0.57;;
69981;SDS011;57319;56.274;43.980;2022-11-02T08:23:50;6.70;;;0.60;;
69981;SDS011;57319;56.274;43.980;2022-11-02T08:26:15;0.30;;;0.30;;
69981;SDS011;57319;56.274;43.980;2022-11-02T08:28:41;2.25;;;0.68;;
69981;SDS011;57319;56.274;43.980;2022-11-02T08:31:13;1.98;;;0.20;;
69981;SDS011;57319;56.274;43.980;2022-11-02T08:33:40;4.78;;;0.60;;
69981;SDS011;57319;56.274;43.980;2022-11-02T08:36:09;2.67;;;0.70;;
69981;SDS011;57319;56.274;43.980;2022-11-02T08:38:35;9.38;;;0.73;;
69981;SDS011;57319;56.274;43.980;2022-11-02T08:41:01;1.17;;;0.50;;
69981;SDS011;57319;56.274;43.980;2022-11-02T08:43:28;7.88;;;0.82;;
69981;SDS011;57319;56.274;43.980;2022-11-02T08:45:56;4.85;;;0.40;;
69981;SDS011;57319;56.274;43.980;2022-11-02T08:48:23;3.40;;;0.55;;
69981;SDS011;57319;56.274;43.980;2022-11-02T08:50:48;2.15;;;0.43;;
69981;SDS011;57319;56.274;43.980;2022-11-02T08:53:15;5.75;;;0.82;;
69981;SDS011;57319;56.274;43.980;2022-11-02T08:55:41;4.20;;;0.75;;
69981;SDS011;57319;56.274;43.980;2022-11-02T08:58:07;2.10;;;0.40;;
69981;SDS011;57319;56.274;43.980;2022-11-02T09:00:33;2.38;;;0.40;;
69981;SDS011;57319;56.274;43.980;2022-11-02T09:05:30;11.95;;;0.75;;
69981;SDS011;57319;56.274;43.980;2022-11-02T09:07:58;10.00;;;1.00;;
69981;SDS011;57319;56.274;43.980;2022-11-02T09:10:26;1.85;;;0.50;;
69981;SDS011;57319;56.274;43.980;2022-11-02T09:12:52;0.90;;;0.77;;
69981;SDS011;57319;56.274;43.980;2022-11-02T09:15:18;0.40;;;0.40;;
69981;SDS011;57319;56.274;43.980;2022-11-02T09:17:47;5.32;;;0.70;;
69981;SDS011;57319;56.274;43.980;2022-11-02T09:20:15;4.10;;;0.43;;
69981;SDS011;57319;56.274;43.980;2022-11-02T09:22:41;1.70;;;0.65;;
69981;SDS011;57319;56.274;43.980;2022-11-02T09:25:07;18.77;;;1.20;;
69981;SDS011;57319;56.274;43.980;2022-11-02T09:27:33;7.25;;;0.75;;
69981;SDS011;57319;56.274;43.980;2022-11-02T09:29:59;10.77;;;0.80;;
69981;SDS011;57319;56.274;43.980;2022-11-02T09:32:24;0.90;;;0.57;;
69981;SDS011;57319;56.274;43.980;2022-11-02T09:34:50;0.60;;;0.60;;
69981;SDS011;57319;56.274;43.980;2022-11-02T09:37:16;3.80;;;1.08;;
69981;SDS011;57319;56.274;43.980;2022-11-02T09:39:42;0.90;;;0.45;;
69981;SDS011;57319;56.274;43.980;2022-11-02T09:42:13;3.83;;;0.40;;
69981;SDS011;57319;56.274;43.980;2022-11-02T09:44:48;4.65;;;0.77;;
69981;SDS011;57319;56.274;43.980;2022-11-02T09:47:26;1.20;;;0.70;;
69981;SDS011;57319;56.274;43.980;2022-11-02T09:49:57;4.30;;;0.60;;
69981;SDS011;57319;56.274;43.980;2022-11-02T09:52:27;5.47;;;0.75;;
69981;SDS011;57319;56.274;43.980;2022-11-02T09:54:58;2.38;;;0.55;;
69981;SDS011;57319;56.274;43.980;2022-11-02T09:57:29;7.75;;;1.15;;
69981;SDS011;57319;56.274;43.980;2022-11-02T09:59:57;3.67;;;1.30;;
69981;SDS011;57319;56.274;43.980;2022-11-02T10:11:37;2.03;;;1.50;;
69981;SDS011;57319;56.274;43.980;2022-11-02T10:16:28;0.60;;;0.60;;
69981;SDS011;57319;56.274;43.980;2022-11-02T10:19:03;3.13;;;0.75;;
69981;SDS011;57319;56.274;43.980;2022-11-02T10:21:35;5.43;;;0.75;;
69981;SDS011;57319;56.274;43.980;2022-11-02T10:27:00;5.07;;;1.10;;
69981;SDS011;57319;56.274;43.980;2022-11-02T10:29:32;2.60;;;0.90;;
69981;SDS011;57319;56.274;43.980;2022-11-02T10:32:13;17.85;;;1.55;;
69981;SDS011;57319;56.274;43.980;2022-11-02T10:34:40;0.80;;;0.80;;
69981;SDS011;57319;56.274;43.980;2022-11-02T10:37:46;1.75;;;0.70;;
69981;SDS011;57319;56.274;43.980;2022-11-02T10:45:24;5.28;;;1.20;;
69981;SDS011;57319;56.274;43.980;2022-11-02T10:48:18;1.45;;;0.80;;
69981;SDS011;57319;56.274;43.980;2022-11-02T10:53:27;6.13;;;1.27;;
69981;SDS011;57319;56.274;43.980;2022-11-02T11:01:27;2.10;;;1.20;;
69981;SDS011;57319;56.274;43.980;2022-11-02T11:03:58;3.03;;;0.80;;
69981;SDS011;57319;56.274;43.980;2022-11-02T11:06:31;11.63;;;0.95;;
69981;SDS011;57319;56.274;43.980;2022-11-02T11:09:04;0.82;;;0.60;;
69981;SDS011;57319;56.274;43.980;2022-11-02T11:11:39;3.33;;;0.98;;
69981;SDS011;57319;56.274;43.980;2022-11-02T11:14:06;5.57;;;0.70;;
69981;SDS011;57319;56.274;43.980;2022-11-02T11:16:43;9.23;;;0.82;;
69981;SDS011;57319;56.274;43.980;2022-11-02T11:19:54;8.60;;;0.70;;
69981;SDS011;57319;56.274;43.980;2022-11-02T11:22:25;11.98;;;1.40;;
69981;SDS011;57319;56.274;43.980;2022-11-02T11:25:21;17.50;;;1.95;;
69981;SDS011;57319;56.274;43.980;2022-11-02T11:27:55;18.52;;;1.25;;
69981;SDS011;57319;56.274;43.980;2022-11-02T11:32:52;11.02;;;0.80;;
69981;SDS011;57319;56.274;43.980;2022-11-02T11:35:18;0.68;;;0.68;;
69981;SDS011;57319;56.274;43.980;2022-11-02T11:40:19;12.60;;;1.00;;
69981;SDS011;57319;56.274;43.980;2022-11-02T11:42:50;3.45;;;0.60;;
69981;SDS011;57319;56.274;43.980;2022-11-02T11:45:23;11.07;;;0.70;;
69981;SDS011;57319;56.274;43.980;2022-11-02T11:47:55;16.50;;;0.85;;
69981;SDS011;57319;56.274;43.980;2022-11-02T11:50:26;17.05;;;1.20;;
69981;SDS011;57319;56.274;43.980;2022-11-02T11:53:09;14.55;;;0.95;;
69981;SDS011;57319;56.274;43.980;2022-11-02T11:55:47;2.53;;;0.82;;
69981;SDS011;57319;56.274;43.980;2022-11-02T12:03:53;1.65;;;0.70;;
69981;SDS011;57319;56.274;43.980;2022-11-02T12:12:19;1.67;;;0.65;;
69981;SDS011;57319;56.274;43.980;2022-11-02T12:20:54;3.67;;;0.77;;
69981;SDS011;57319;56.274;43.980;2022-11-02T12:48:56;9.10;;;1.00;;
69981;SDS011;57319;56.274;43.980;2022-11-02T12:51:25;18.75;;;1.23;;
69981;SDS011;57319;56.274;43.980;2022-11-02T12:53:57;4.30;;;0.50;;
69981;SDS011;57319;56.274;43.980;2022-11-02T12:56:46;1.63;;;0.70;;
69981;SDS011;57319;56.274;43.980;2022-11-02T12:59:15;4.68;;;0.80;;
69981;SDS011;57319;56.274;43.980;2022-11-02T13:01:56;10.75;;;1.25;;
69981;SDS011;57319;56.274;43.980;2022-11-02T13:04:36;0.60;;;0.60;;
69981;SDS011;57319;56.274;43.980;2022-11-02T13:07:14;0.52;;;0.52;;
69981;SDS011;57319;56.274;43.980;2022-11-02T13:09:47;4.13;;;0.70;;
69981;SDS011;57319;56.274;43.980;2022-11-02T13:12:23;1.10;;;1.10;;
69981;SDS011;57319;56.274;43.980;2022-11-02T13:14:51;7.10;;;0.70;;
69981;SDS011;57319;56.274;43.980;2022-11-02T13:17:20;0.70;;;0.50;;
69981;SDS011;57319;56.274;43.980;2022-11-02T13:19:54;4.95;;;0.60;;
69981;SDS011;57319;56.274;43.980;2022-11-02T13:22:54;0.70;;;0.70;;
69981;SDS011;57319;56.274;43.980;2022-11-02T13:25:35;0.63;;;0.63;;
69981;SDS011;57319;56.274;43.980;2022-11-02T13:28:10;0.63;;;0.63;;
69981;SDS011;57319;56.274;43.980;2022-11-02T13:30:41;0.60;;;0.60;;
69981;SDS011;57319;56.274;43.980;2022-11-02T13:35:47;0.57;;;0.57;;
69981;SDS011;57319;56.274;43.980;2022-11-02T13:52:09;0.70;;;0.70;;
69981;SDS011;57319;56.274;43.980;2022-11-02T13:57:35;1.93;;;0.70;;
69981;SDS011;57319;56.274;43.980;2022-11-02T14:03:16;1.05;;;0.60;;
69981;SDS011;57319;56.274;43.980;2022-11-02T14:05:51;0.60;;;0.60;;
69981;SDS011;57319;56.274;43.980;2022-11-02T14:08:23;3.35;;;0.80;;
69981;SDS011;57319;56.274;43.980;2022-11-02T14:11:02;1.27;;;1.23;;
69981;SDS011;57319;56.274;43.980;2022-11-02T14:19:19;0.98;;;0.98;;
69981;SDS011;57319;56.274;43.980;2022-11-02T14:48:54;1.10;;;1.10;;
69981;SDS011;57319;56.274;43.980;2022-11-02T14:51:24;1.55;;;1.30;;
69981;SDS011;57319;56.274;43.980;2022-11-02T14:53:54;1.52;;;1.40;;
69981;SDS011;57319;56.274;43.980;2022-11-02T14:56:22;1.42;;;1.38;;
69981;SDS011;57319;56.274;43.980;2022-11-02T14:58:51;1.40;;;1.02;;
69981;SDS011;57319;56.274;43.980;2022-11-02T15:01:20;0.95;;;0.95;;
69981;SDS011;57319;56.274;43.980;2022-11-02T15:03:47;2.25;;;0.90;;
69981;SDS011;57319;56.274;43.980;2022-11-02T15:06:18;0.80;;;0.80;;
69981;SDS011;57319;56.274;43.980;2022-11-02T15:08:51;2.55;;;1.30;;
69981;SDS011;57319;56.274;43.980;2022-11-02T15:14:29;1.40;;;1.40;;
69981;SDS011;57319;56.274;43.980;2022-11-02T15:16:55;1.40;;;1.40;;
69981;SDS011;57319;56.274;43.980;2022-11-02T15:19:40;1.17;;;1.15;;
69981;SDS011;57319;56.274;43.980;2022-11-02T15:25:05;4.72;;;1.00;;
69981;SDS011;57319;56.274;43.980;2022-11-02T15:27:34;1.13;;;1.13;;
69981;SDS011;57319;56.274;43.980;2022-11-02T15:30:04;0.90;;;0.90;;
69981;SDS011;57319;56.274;43.980;2022-11-02T15:32:31;1.02;;;1.02;;
69981;SDS011;57319;56.274;43.980;2022-11-02T15:35:04;1.02;;;1.02;;
69981;SDS011;57319;56.274;43.980;2022-11-02T15:37:30;0.90;;;0.90;;
69981;SDS011;57319;56.274;43.980;2022-11-02T15:39:59;1.23;;;1.20;;
69981;SDS011;57319;56.274;43.980;2022-11-02T15:50:29;1.35;;;1.20;;
69981;SDS011;57319;56.274;43.980;2022-11-02T15:58:18;0.98;;;0.98;;
69981;SDS011;57319;56.274;43.980;2022-11-02T16:01:08;1.52;;;0.77;;
69981;SDS011;57319;56.274;43.980;2022-11-02T16:03:50;9.73;;;1.13;;
69981;SDS011;57319;56.274;43.980;2022-11-02T16:06:35;1.67;;;1.10;;
69981;SDS011;57319;56.274;43.980;2022-11-02T16:14:28;0.88;;;0.88;;
69981;SDS011;57319;56.274;43.980;2022-11-02T16:16:55;4.93;;;1.08;;
69981;SDS011;57319;56.274;43.980;2022-11-02T16:19:20;0.90;;;0.90;;
69981;SDS011;57319;56.274;43.980;2022-11-02T16:21:49;0.77;;;0.77;;
69981;SDS011;57319;56.274;43.980;2022-11-02T16:24:15;2.10;;;1.00;;
69981;SDS011;57319;56.274;43.980;2022-11-02T16:26:41;0.70;;;0.70;;
69981;SDS011;57319;56.274;43.980;2022-11-02T16:29:08;3.08;;;1.10;;
69981;SDS011;57319;56.274;43.980;2022-11-02T16:31:35;1.50;;;1.40;;
69981;SDS011;57319;56.274;43.980;2022-11-02T16:36:47;1.40;;;0.98;;
69981;SDS011;57319;56.274;43.980;2022-11-02T16:39:17;1.00;;;1.00;;
69981;SDS011;57319;56.274;43.980;2022-11-02T16:41:49;1.13;;;1.02;;
69981;SDS011;57319;56.274;43.980;2022-11-02T16:44:29;0.88;;;0.82;;
69981;SDS011;57319;56.274;43.980;2022-11-02T16:49:30;2.30;;;0.93;;
69981;SDS011;57319;56.274;43.980;2022-11-02T16:52:05;1.10;;;1.10;;
69981;SDS011;57319;56.274;43.980;2022-11-02T16:54:42;1.02;;;1.02;;
69981;SDS011;57319;56.274;43.980;2022-11-02T16:59:56;2.40;;;1.05;;
69981;SDS011;57319;56.274;43.980;2022-11-02T17:05:01;2.00;;;1.02;;
69981;SDS011;57319;56.274;43.980;2022-11-02T17:07:32;1.33;;;1.27;;
69981;SDS011;57319;56.274;43.980;2022-11-02T17:10:02;1.67;;;1.40;;
69981;SDS011;57319;56.274;43.980;2022-11-02T17:12:31;5.35;;;1.00;;
69981;SDS011;57319;56.274;43.980;2022-11-02T17:15:07;0.80;;;0.80;;
69981;SDS011;57319;56.274;43.980;2022-11-02T17:17:40;2.30;;;1.00;;
69981;SDS011;57319;56.274;43.980;2022-11-02T17:22:36;0.80;;;0.80;;
69981;SDS011;57319;56.274;43.980;2022-11-02T17:30:57;3.10;;;0.90;;
69981;SDS011;57319;56.274;43.980;2022-11-02T17:33:25;1.75;;;0.93;;
69981;SDS011;57319;56.274;43.980;2022-11-02T17:35:53;0.90;;;0.90;;
69981;SDS011;57319;56.274;43.980;2022-11-02T17:38:25;1.08;;;1.08;;
69981;SDS011;57319;56.274;43.980;2022-11-02T17:40:51;1.05;;;0.98;;
69981;SDS011;57319;56.274;43.980;2022-11-02T17:43:18;1.75;;;0.88;;
69981;SDS011;57319;56.274;43.980;2022-11-02T17:45:44;0.80;;;0.80;;
69981;SDS011;57319;56.274;43.980;2022-11-02T17:48:10;1.20;;;1.10;;
69981;SDS011;57319;56.274;43.980;2022-11-02T17:50:36;1.02;;;0.82;;
69981;SDS011;57319;56.274;43.980;2022-11-02T17:53:03;0.95;;;0.95;;
69981;SDS011;57319;56.274;43.980;2022-11-02T17:55:31;3.00;;;0.90;;
69981;SDS011;57319;56.274;43.980;2022-11-02T17:57:58;1.50;;;1.40;;
69981;SDS011;57319;56.274;43.980;2022-11-02T18:00:24;0.95;;;0.95;;
69981;SDS011;57319;56.274;43.980;2022-11-02T18:02:55;1.25;;;1.15;;
69981;SDS011;57319;56.274;43.980;2022-11-02T18:07:57;0.88;;;0.82;;
69981;SDS011;57319;56.274;43.980;2022-11-02T18:10:33;0.98;;;0.98;;
69981;SDS011;57319;56.274;43.980;2022-11-02T18:13:02;1.00;;;0.90;;
69981;SDS011;57319;56.274;43.980;2022-11-02T18:15:28;0.90;;;0.90;;
69981;SDS011;57319;56.274;43.980;2022-11-02T18:17:56;0.80;;;0.80;;
69981;SDS011;57319;56.274;43.980;2022-11-02T18:20:23;0.80;;;0.80;;